sensor_id;sensor_type;location;lat;lon;timestamp;P1;durP1;ratioP1;P2;durP2;ratioP2
37288;SDS011;23174;49.462;11.000;2023-06-04T00:00:08;2.83;;;1.65;;
37288;SDS011;23174;49.462;11.000;2023-06-04T00:02:09;2.33;;;1.65;;
37288;SDS011;23174;49.462;11.000;2023-06-04T00:04:10;2.40;;;1.50;;
37288;SDS011;23174;49.462;11.000;2023-06-04T00:06:11;1.75;;;1.60;;
37288;SDS011;23174;49.462;11.000;2023-06-04T00:08:11;1.85;;;1.48;;
37288;SDS011;23174;49.462;11.000;2023-06-04T00:10:11;1.45;;;1.35;;
37288;SDS011;23174;49.462;11.000;2023-06-04T00:12:12;1.75;;;1.38;;
37288;SDS011;23174;49.462;11.000;2023-06-04T00:14:13;3.47;;;1.60;;
37288;SDS011;23174;49.462;11.000;2023-06-04T00:16:15;2.65;;;1.40;;
37288;SDS011;23174;49.462;11.000;2023-06-04T00:18:15;1.98;;;1.55;;
37288;SDS011;23174;49.462;11.000;2023-06-04T00:20:16;1.30;;;1.20;;
37288;SDS011;23174;49.462;11.000;2023-06-04T00:22:17;3.17;;;1.27;;
37288;SDS011;23174;49.462;11.000;2023-06-04T00:24:17;3.67;;;1.40;;
37288;SDS011;23174;49.462;11.000;2023-06-04T00:26:18;1.83;;;1.38;;
37288;SDS011;23174;49.462;11.000;2023-06-04T00:28:22;2.25;;;1.80;;
37288;SDS011;23174;49.462;11.000;2023-06-04T00:30:28;4.35;;;1.80;;
37288;SDS011;23174;49.462;11.000;2023-06-04T00:32:29;7.57;;;1.92;;
37288;SDS011;23174;49.462;11.000;2023-06-04T00:34:29;1.80;;;1.30;;
37288;SDS011;23174;49.462;11.000;2023-06-04T00:36:30;2.95;;;1.50;;
37288;SDS011;23174;49.462;11.000;2023-06-04T00:38:30;1.70;;;1.60;;
37288;SDS011;23174;49.462;11.000;2023-06-04T00:40:31;3.03;;;1.60;;
37288;SDS011;23174;49.462;11.000;2023-06-04T00:42:31;2.00;;;1.80;;
37288;SDS011;23174;49.462;11.000;2023-06-04T00:44:32;3.85;;;1.50;;
37288;SDS011;23174;49.462;11.000;2023-06-04T00:46:33;5.10;;;1.73;;
37288;SDS011;23174;49.462;11.000;2023-06-04T00:48:37;2.15;;;1.40;;
37288;SDS011;23174;49.462;11.000;2023-06-04T00:50:38;3.40;;;1.70;;
37288;SDS011;23174;49.462;11.000;2023-06-04T00:52:39;2.00;;;1.52;;
37288;SDS011;23174;49.462;11.000;2023-06-04T00:54:40;1.40;;;1.27;;
37288;SDS011;23174;49.462;11.000;2023-06-04T00:56:41;2.08;;;1.30;;
37288;SDS011;23174;49.462;11.000;2023-06-04T00:58:42;1.50;;;1.40;;
37288;SDS011;23174;49.462;11.000;2023-06-04T01:00:45;5.93;;;1.63;;
37288;SDS011;23174;49.462;11.000;2023-06-04T01:02:45;3.33;;;1.40;;
37288;SDS011;23174;49.462;11.000;2023-06-04T01:07:29;2.88;;;1.60;;
37288;SDS011;23174;49.462;11.000;2023-06-04T01:09:30;1.70;;;1.50;;
37288;SDS011;23174;49.462;11.000;2023-06-04T01:11:32;1.52;;;1.42;;
37288;SDS011;23174;49.462;11.000;2023-06-04T01:13:36;1.58;;;1.48;;
37288;SDS011;23174;49.462;11.000;2023-06-04T01:15:36;1.52;;;1.42;;
37288;SDS011;23174;49.462;11.000;2023-06-04T01:17:38;2.00;;;1.38;;
37288;SDS011;23174;49.462;11.000;2023-06-04T01:22:04;2.70;;;1.50;;
37288;SDS011;23174;49.462;11.000;2023-06-04T01:24:21;2.10;;;1.50;;
37288;SDS011;23174;49.462;11.000;2023-06-04T01:26:28;2.05;;;1.45;;
37288;SDS011;23174;49.462;11.000;2023-06-04T01:28:30;1.60;;;1.50;;
37288;SDS011;23174;49.462;11.000;2023-06-04T01:30:34;2.30;;;1.52;;
37288;SDS011;23174;49.462;11.000;2023-06-04T01:32:44;2.15;;;1.55;;
37288;SDS011;23174;49.462;11.000;2023-06-04T01:34:46;2.03;;;1.55;;
37288;SDS011;23174;49.462;11.000;2023-06-04T01:36:47;4.10;;;1.63;;
37288;SDS011;23174;49.462;11.000;2023-06-04T01:38:47;1.52;;;1.42;;
37288;SDS011;23174;49.462;11.000;2023-06-04T01:40:47;3.92;;;1.60;;
37288;SDS011;23174;49.462;11.000;2023-06-04T01:42:48;1.50;;;1.40;;
37288;SDS011;23174;49.462;11.000;2023-06-04T01:44:49;2.33;;;1.70;;
37288;SDS011;23174;49.462;11.000;2023-06-04T01:46:49;1.35;;;1.25;;
37288;SDS011;23174;49.462;11.000;2023-06-04T01:48:50;2.42;;;1.70;;
37288;SDS011;23174;49.462;11.000;2023-06-04T01:50:50;2.28;;;1.77;;
37288;SDS011;23174;49.462;11.000;2023-06-04T01:52:51;2.22;;;1.50;;
37288;SDS011;23174;49.462;11.000;2023-06-04T01:54:52;2.63;;;1.70;;
37288;SDS011;23174;49.462;11.000;2023-06-04T01:56:52;4.10;;;2.00;;
37288;SDS011;23174;49.462;11.000;2023-06-04T01:58:53;1.40;;;1.30;;
37288;SDS011;23174;49.462;11.000;2023-06-04T02:00:53;1.67;;;1.35;;
37288;SDS011;23174;49.462;11.000;2023-06-04T02:02:55;3.35;;;1.90;;
37288;SDS011;23174;49.462;11.000;2023-06-04T02:04:56;4.95;;;1.70;;
37288;SDS011;23174;49.462;11.000;2023-06-04T02:06:56;4.88;;;1.60;;
37288;SDS011;23174;49.462;11.000;2023-06-04T02:08:59;5.32;;;1.90;;
37288;SDS011;23174;49.462;11.000;2023-06-04T02:11:01;1.98;;;1.42;;
37288;SDS011;23174;49.462;11.000;2023-06-04T02:13:01;3.97;;;1.83;;
37288;SDS011;23174;49.462;11.000;2023-06-04T02:15:03;1.58;;;1.48;;
37288;SDS011;23174;49.462;11.000;2023-06-04T02:17:04;4.05;;;1.83;;
37288;SDS011;23174;49.462;11.000;2023-06-04T02:19:09;4.72;;;1.73;;
37288;SDS011;23174;49.462;11.000;2023-06-04T02:21:12;1.75;;;1.33;;
37288;SDS011;23174;49.462;11.000;2023-06-04T02:23:13;2.25;;;1.80;;
37288;SDS011;23174;49.462;11.000;2023-06-04T02:25:16;1.50;;;1.40;;
37288;SDS011;23174;49.462;11.000;2023-06-04T02:27:16;3.03;;;1.60;;
37288;SDS011;23174;49.462;11.000;2023-06-04T02:29:17;2.67;;;1.45;;
37288;SDS011;23174;49.462;11.000;2023-06-04T02:31:18;1.50;;;1.35;;
37288;SDS011;23174;49.462;11.000;2023-06-04T02:33:18;2.47;;;1.70;;
37288;SDS011;23174;49.462;11.000;2023-06-04T02:35:19;4.60;;;1.60;;
37288;SDS011;23174;49.462;11.000;2023-06-04T02:37:21;2.05;;;1.75;;
37288;SDS011;23174;49.462;11.000;2023-06-04T02:39:22;3.65;;;1.92;;
37288;SDS011;23174;49.462;11.000;2023-06-04T02:41:23;2.92;;;1.85;;
37288;SDS011;23174;49.462;11.000;2023-06-04T02:43:23;3.17;;;1.55;;
37288;SDS011;23174;49.462;11.000;2023-06-04T02:45:24;1.83;;;1.65;;
37288;SDS011;23174;49.462;11.000;2023-06-04T02:47:24;1.70;;;1.60;;
37288;SDS011;23174;49.462;11.000;2023-06-04T02:49:25;1.45;;;1.15;;
37288;SDS011;23174;49.462;11.000;2023-06-04T02:51:25;1.63;;;1.52;;
37288;SDS011;23174;49.462;11.000;2023-06-04T02:53:28;2.63;;;1.83;;
37288;SDS011;23174;49.462;11.000;2023-06-04T02:55:28;1.70;;;1.60;;
37288;SDS011;23174;49.462;11.000;2023-06-04T02:57:29;4.18;;;1.95;;
37288;SDS011;23174;49.462;11.000;2023-06-04T02:59:30;1.50;;;1.40;;
37288;SDS011;23174;49.462;11.000;2023-06-04T03:01:32;5.18;;;1.90;;
37288;SDS011;23174;49.462;11.000;2023-06-04T03:03:32;7.47;;;1.85;;
37288;SDS011;23174;49.462;11.000;2023-06-04T03:05:33;1.67;;;1.58;;
37288;SDS011;23174;49.462;11.000;2023-06-04T03:07:33;2.08;;;1.58;;
37288;SDS011;23174;49.462;11.000;2023-06-04T03:09:34;3.05;;;1.88;;
37288;SDS011;23174;49.462;11.000;2023-06-04T03:11:34;3.17;;;1.35;;
37288;SDS011;23174;49.462;11.000;2023-06-04T03:13:35;4.88;;;1.48;;
37288;SDS011;23174;49.462;11.000;2023-06-04T03:15:36;1.67;;;1.58;;
37288;SDS011;23174;49.462;11.000;2023-06-04T03:17:39;3.38;;;1.77;;
37288;SDS011;23174;49.462;11.000;2023-06-04T03:19:41;1.50;;;1.40;;
37288;SDS011;23174;49.462;11.000;2023-06-04T03:21:41;4.30;;;2.50;;
37288;SDS011;23174;49.462;11.000;2023-06-04T03:23:42;2.00;;;1.77;;
37288;SDS011;23174;49.462;11.000;2023-06-04T03:25:43;3.05;;;1.67;;
37288;SDS011;23174;49.462;11.000;2023-06-04T03:27:44;1.95;;;1.80;;
37288;SDS011;23174;49.462;11.000;2023-06-04T03:29:44;2.55;;;1.60;;
37288;SDS011;23174;49.462;11.000;2023-06-04T03:31:45;2.92;;;1.58;;
37288;SDS011;23174;49.462;11.000;2023-06-04T03:33:48;3.00;;;1.90;;
37288;SDS011;23174;49.462;11.000;2023-06-04T03:35:50;1.13;;;1.10;;
37288;SDS011;23174;49.462;11.000;2023-06-04T03:37:52;2.60;;;1.70;;
37288;SDS011;23174;49.462;11.000;2023-06-04T03:39:52;1.83;;;1.63;;
37288;SDS011;23174;49.462;11.000;2023-06-04T03:41:53;2.45;;;1.65;;
37288;SDS011;23174;49.462;11.000;2023-06-04T03:43:53;2.25;;;1.73;;
37288;SDS011;23174;49.462;11.000;2023-06-04T03:45:54;2.42;;;1.80;;
37288;SDS011;23174;49.462;11.000;2023-06-04T03:47:54;3.45;;;1.85;;
37288;SDS011;23174;49.462;11.000;2023-06-04T03:49:55;2.67;;;1.50;;
37288;SDS011;23174;49.462;11.000;2023-06-04T03:51:55;1.85;;;1.48;;
37288;SDS011;23174;49.462;11.000;2023-06-04T03:53:57;4.90;;;1.90;;
37288;SDS011;23174;49.462;11.000;2023-06-04T03:55:58;1.58;;;1.48;;
37288;SDS011;23174;49.462;11.000;2023-06-04T03:57:58;4.75;;;1.60;;
37288;SDS011;23174;49.462;11.000;2023-06-04T03:59:59;1.45;;;1.35;;
37288;SDS011;23174;49.462;11.000;2023-06-04T04:02:00;2.05;;;1.25;;
37288;SDS011;23174;49.462;11.000;2023-06-04T04:04:00;4.50;;;1.58;;
37288;SDS011;23174;49.462;11.000;2023-06-04T04:06:01;5.75;;;1.60;;
37288;SDS011;23174;49.462;11.000;2023-06-04T04:08:01;2.15;;;1.40;;
37288;SDS011;23174;49.462;11.000;2023-06-04T04:10:02;2.22;;;1.90;;
37288;SDS011;23174;49.462;11.000;2023-06-04T04:12:04;4.57;;;2.03;;
37288;SDS011;23174;49.462;11.000;2023-06-04T04:14:05;1.50;;;1.40;;
37288;SDS011;23174;49.462;11.000;2023-06-04T04:16:06;1.77;;;1.58;;
37288;SDS011;23174;49.462;11.000;2023-06-04T04:18:06;3.95;;;1.42;;
37288;SDS011;23174;49.462;11.000;2023-06-04T04:20:10;2.65;;;1.48;;
37288;SDS011;23174;49.462;11.000;2023-06-04T04:22:11;3.47;;;1.70;;
37288;SDS011;23174;49.462;11.000;2023-06-04T04:24:21;1.73;;;1.63;;
37288;SDS011;23174;49.462;11.000;2023-06-04T04:26:26;1.50;;;1.40;;
37288;SDS011;23174;49.462;11.000;2023-06-04T04:28:27;2.25;;;1.40;;
37288;SDS011;23174;49.462;11.000;2023-06-04T04:30:28;1.45;;;1.35;;
37288;SDS011;23174;49.462;11.000;2023-06-04T04:32:29;2.78;;;1.40;;
37288;SDS011;23174;49.462;11.000;2023-06-04T04:34:30;3.75;;;1.60;;
37288;SDS011;23174;49.462;11.000;2023-06-04T04:36:33;3.20;;;1.50;;
37288;SDS011;23174;49.462;11.000;2023-06-04T04:38:36;3.38;;;1.50;;
37288;SDS011;23174;49.462;11.000;2023-06-04T04:40:37;2.20;;;1.65;;
37288;SDS011;23174;49.462;11.000;2023-06-04T04:42:37;1.83;;;1.45;;
37288;SDS011;23174;49.462;11.000;2023-06-04T04:44:38;1.77;;;1.30;;
37288;SDS011;23174;49.462;11.000;2023-06-04T04:46:38;2.42;;;2.05;;
37288;SDS011;23174;49.462;11.000;2023-06-04T04:48:39;1.55;;;1.45;;
37288;SDS011;23174;49.462;11.000;2023-06-04T04:50:42;5.40;;;1.75;;
37288;SDS011;23174;49.462;11.000;2023-06-04T04:52:42;1.70;;;1.60;;
37288;SDS011;23174;49.462;11.000;2023-06-04T04:54:43;6.97;;;1.75;;
37288;SDS011;23174;49.462;11.000;2023-06-04T04:56:43;2.35;;;1.88;;
37288;SDS011;23174;49.462;11.000;2023-06-04T04:58:44;1.85;;;1.60;;
37288;SDS011;23174;49.462;11.000;2023-06-04T05:00:44;2.88;;;1.60;;
37288;SDS011;23174;49.462;11.000;2023-06-04T05:02:47;1.67;;;1.55;;
37288;SDS011;23174;49.462;11.000;2023-06-04T05:04:48;2.22;;;1.90;;
37288;SDS011;23174;49.462;11.000;2023-06-04T05:06:48;3.80;;;1.73;;
37288;SDS011;23174;49.462;11.000;2023-06-04T05:08:48;1.55;;;1.45;;
37288;SDS011;23174;49.462;11.000;2023-06-04T05:10:50;6.25;;;1.48;;
37288;SDS011;23174;49.462;11.000;2023-06-04T05:12:54;3.10;;;1.52;;
37288;SDS011;23174;49.462;11.000;2023-06-04T05:14:55;2.28;;;1.48;;
37288;SDS011;23174;49.462;11.000;2023-06-04T05:16:55;3.47;;;1.60;;
37288;SDS011;23174;49.462;11.000;2023-06-04T05:18:56;3.47;;;1.60;;
37288;SDS011;23174;49.462;11.000;2023-06-04T05:20:59;1.77;;;1.50;;
37288;SDS011;23174;49.462;11.000;2023-06-04T05:23:02;1.55;;;1.13;;
37288;SDS011;23174;49.462;11.000;2023-06-04T05:25:04;1.60;;;1.50;;
37288;SDS011;23174;49.462;11.000;2023-06-04T05:27:06;2.20;;;1.55;;
37288;SDS011;23174;49.462;11.000;2023-06-04T05:29:09;1.55;;;1.40;;
37288;SDS011;23174;49.462;11.000;2023-06-04T05:31:09;2.33;;;1.38;;
37288;SDS011;23174;49.462;11.000;2023-06-04T05:33:13;1.63;;;1.52;;
37288;SDS011;23174;49.462;11.000;2023-06-04T05:35:20;3.25;;;1.50;;
37288;SDS011;23174;49.462;11.000;2023-06-04T05:37:20;1.60;;;1.48;;
37288;SDS011;23174;49.462;11.000;2023-06-04T05:39:23;1.50;;;1.40;;
37288;SDS011;23174;49.462;11.000;2023-06-04T05:41:24;2.53;;;1.52;;
37288;SDS011;23174;49.462;11.000;2023-06-04T05:43:25;1.80;;;1.40;;
37288;SDS011;23174;49.462;11.000;2023-06-04T05:45:26;1.42;;;1.33;;
37288;SDS011;23174;49.462;11.000;2023-06-04T05:47:27;2.63;;;1.45;;
37288;SDS011;23174;49.462;11.000;2023-06-04T05:49:28;3.92;;;1.50;;
37288;SDS011;23174;49.462;11.000;2023-06-04T05:51:29;1.90;;;1.52;;
37288;SDS011;23174;49.462;11.000;2023-06-04T05:53:29;3.80;;;1.50;;
37288;SDS011;23174;49.462;11.000;2023-06-04T05:55:30;2.28;;;1.40;;
37288;SDS011;23174;49.462;11.000;2023-06-04T05:57:30;2.45;;;1.60;;
37288;SDS011;23174;49.462;11.000;2023-06-04T05:59:31;8.20;;;1.52;;
37288;SDS011;23174;49.462;11.000;2023-06-04T06:01:32;3.65;;;1.45;;
37288;SDS011;23174;49.462;11.000;2023-06-04T06:03:32;4.97;;;1.50;;
37288;SDS011;23174;49.462;11.000;2023-06-04T06:05:33;1.42;;;1.27;;
37288;SDS011;23174;49.462;11.000;2023-06-04T06:07:34;1.98;;;1.60;;
37288;SDS011;23174;49.462;11.000;2023-06-04T06:09:34;1.50;;;1.40;;
37288;SDS011;23174;49.462;11.000;2023-06-04T06:11:36;6.18;;;1.60;;
37288;SDS011;23174;49.462;11.000;2023-06-04T06:13:36;0.30;;;0.30;;
37288;SDS011;23174;49.462;11.000;2023-06-04T06:15:37;0.10;;;0.10;;
37288;SDS011;23174;49.462;11.000;2023-06-04T06:17:38;0.80;;;0.55;;
37288;SDS011;23174;49.462;11.000;2023-06-04T06:19:38;0.47;;;0.47;;
37288;SDS011;23174;49.462;11.000;2023-06-04T06:21:39;1.95;;;0.35;;
37288;SDS011;23174;49.462;11.000;2023-06-04T06:23:40;0.50;;;0.50;;
37288;SDS011;23174;49.462;11.000;2023-06-04T06:25:40;0.10;;;0.10;;
37288;SDS011;23174;49.462;11.000;2023-06-04T06:27:41;0.60;;;0.45;;
37288;SDS011;23174;49.462;11.000;2023-06-04T06:29:42;2.72;;;0.45;;
37288;SDS011;23174;49.462;11.000;2023-06-04T06:31:43;0.57;;;0.57;;
37288;SDS011;23174;49.462;11.000;2023-06-04T06:33:44;0.10;;;0.10;;
37288;SDS011;23174;49.462;11.000;2023-06-04T06:35:44;0.28;;;0.28;;
37288;SDS011;23174;49.462;11.000;2023-06-04T06:37:46;0.25;;;0.25;;
37288;SDS011;23174;49.462;11.000;2023-06-04T06:39:46;0.20;;;0.20;;
37288;SDS011;23174;49.462;11.000;2023-06-04T06:41:47;1.55;;;0.50;;
37288;SDS011;23174;49.462;11.000;2023-06-04T06:43:47;0.10;;;0.10;;
37288;SDS011;23174;49.462;11.000;2023-06-04T06:45:48;0.20;;;0.20;;
37288;SDS011;23174;49.462;11.000;2023-06-04T06:47:48;0.52;;;0.43;;
37288;SDS011;23174;49.462;11.000;2023-06-04T06:49:49;0.20;;;0.20;;
37288;SDS011;23174;49.462;11.000;2023-06-04T06:51:49;1.65;;;0.50;;
37288;SDS011;23174;49.462;11.000;2023-06-04T06:53:50;0.32;;;0.28;;
37288;SDS011;23174;49.462;11.000;2023-06-04T06:55:51;0.77;;;0.52;;
37288;SDS011;23174;49.462;11.000;2023-06-04T06:57:51;0.50;;;0.50;;
37288;SDS011;23174;49.462;11.000;2023-06-04T06:59:51;0.52;;;0.50;;
37288;SDS011;23174;49.462;11.000;2023-06-04T07:01:53;0.55;;;0.55;;
37288;SDS011;23174;49.462;11.000;2023-06-04T07:03:54;0.73;;;0.40;;
37288;SDS011;23174;49.462;11.000;2023-06-04T07:05:54;0.45;;;0.45;;
37288;SDS011;23174;49.462;11.000;2023-06-04T07:07:55;0.22;;;0.22;;
37288;SDS011;23174;49.462;11.000;2023-06-04T07:09:57;0.32;;;0.32;;
37288;SDS011;23174;49.462;11.000;2023-06-04T07:11:57;0.45;;;0.45;;
37288;SDS011;23174;49.462;11.000;2023-06-04T07:13:58;0.32;;;0.32;;
37288;SDS011;23174;49.462;11.000;2023-06-04T07:15:58;0.55;;;0.30;;
37288;SDS011;23174;49.462;11.000;2023-06-04T07:17:59;0.20;;;0.20;;
37288;SDS011;23174;49.462;11.000;2023-06-04T07:19:59;0.43;;;0.43;;
37288;SDS011;23174;49.462;11.000;2023-06-04T07:22:00;6.85;;;1.58;;
37288;SDS011;23174;49.462;11.000;2023-06-04T07:24:01;2.13;;;1.80;;
37288;SDS011;23174;49.462;11.000;2023-06-04T07:26:01;5.40;;;1.65;;
37288;SDS011;23174;49.462;11.000;2023-06-04T07:28:02;3.55;;;1.45;;
37288;SDS011;23174;49.462;11.000;2023-06-04T07:30:04;1.58;;;1.48;;
37288;SDS011;23174;49.462;11.000;2023-06-04T07:32:06;1.95;;;1.33;;
37288;SDS011;23174;49.462;11.000;2023-06-04T07:34:06;5.28;;;1.52;;
37288;SDS011;23174;49.462;11.000;2023-06-04T07:36:07;2.30;;;1.52;;
37288;SDS011;23174;49.462;11.000;2023-06-04T07:38:07;1.95;;;1.70;;
37288;SDS011;23174;49.462;11.000;2023-06-04T07:40:08;2.47;;;1.50;;
37288;SDS011;23174;49.462;11.000;2023-06-04T07:42:09;4.90;;;1.77;;
37288;SDS011;23174;49.462;11.000;2023-06-04T07:44:10;2.33;;;1.92;;
37288;SDS011;23174;49.462;11.000;2023-06-04T07:46:10;3.83;;;2.00;;
37288;SDS011;23174;49.462;11.000;2023-06-04T07:48:11;1.50;;;1.40;;
37288;SDS011;23174;49.462;11.000;2023-06-04T07:50:12;3.63;;;1.60;;
37288;SDS011;23174;49.462;11.000;2023-06-04T07:52:12;1.77;;;1.52;;
37288;SDS011;23174;49.462;11.000;2023-06-04T07:54:14;1.90;;;1.70;;
37288;SDS011;23174;49.462;11.000;2023-06-04T07:56:14;4.90;;;1.60;;
37288;SDS011;23174;49.462;11.000;2023-06-04T07:58:15;2.58;;;1.88;;
37288;SDS011;23174;49.462;11.000;2023-06-04T08:00:15;3.45;;;1.67;;
37288;SDS011;23174;49.462;11.000;2023-06-04T08:02:17;3.15;;;1.45;;
37288;SDS011;23174;49.462;11.000;2023-06-04T08:04:18;4.38;;;2.08;;
37288;SDS011;23174;49.462;11.000;2023-06-04T08:06:19;2.88;;;2.00;;
37288;SDS011;23174;49.462;11.000;2023-06-04T08:08:19;1.73;;;1.63;;
37288;SDS011;23174;49.462;11.000;2023-06-04T08:10:20;2.13;;;1.40;;
37288;SDS011;23174;49.462;11.000;2023-06-04T08:12:20;4.15;;;1.60;;
37288;SDS011;23174;49.462;11.000;2023-06-04T08:14:21;1.73;;;1.63;;
37288;SDS011;23174;49.462;11.000;2023-06-04T08:16:22;2.38;;;1.67;;
37288;SDS011;23174;49.462;11.000;2023-06-04T08:18:22;2.45;;;2.00;;
37288;SDS011;23174;49.462;11.000;2023-06-04T08:20:23;1.80;;;1.60;;
37288;SDS011;23174;49.462;11.000;2023-06-04T08:22:24;1.70;;;1.60;;
37288;SDS011;23174;49.462;11.000;2023-06-04T08:24:24;1.90;;;1.80;;
37288;SDS011;23174;49.462;11.000;2023-06-04T08:26:25;2.35;;;1.40;;
37288;SDS011;23174;49.462;11.000;2023-06-04T08:28:29;3.88;;;1.50;;
37288;SDS011;23174;49.462;11.000;2023-06-04T08:30:29;5.00;;;1.70;;
37288;SDS011;23174;49.462;11.000;2023-06-04T08:32:30;4.32;;;1.40;;
37288;SDS011;23174;49.462;11.000;2023-06-04T08:34:30;1.65;;;1.55;;
37288;SDS011;23174;49.462;11.000;2023-06-04T08:36:31;3.40;;;1.70;;
37288;SDS011;23174;49.462;11.000;2023-06-04T08:38:32;4.88;;;1.92;;
37288;SDS011;23174;49.462;11.000;2023-06-04T08:40:33;5.28;;;1.70;;
37288;SDS011;23174;49.462;11.000;2023-06-04T08:42:42;4.03;;;1.80;;
37288;SDS011;23174;49.462;11.000;2023-06-04T08:44:44;5.72;;;1.92;;
37288;SDS011;23174;49.462;11.000;2023-06-04T08:46:47;2.88;;;1.73;;
37288;SDS011;23174;49.462;11.000;2023-06-04T08:48:53;1.50;;;1.40;;
37288;SDS011;23174;49.462;11.000;2023-06-04T08:50:56;5.47;;;1.60;;
37288;SDS011;23174;49.462;11.000;2023-06-04T08:52:59;2.90;;;1.58;;
37288;SDS011;23174;49.462;11.000;2023-06-04T08:55:00;2.20;;;1.58;;
37288;SDS011;23174;49.462;11.000;2023-06-04T08:57:01;4.30;;;1.90;;
37288;SDS011;23174;49.462;11.000;2023-06-04T08:59:03;4.25;;;1.83;;
37288;SDS011;23174;49.462;11.000;2023-06-04T09:01:06;1.75;;;1.60;;
37288;SDS011;23174;49.462;11.000;2023-06-04T09:03:07;3.25;;;1.80;;
37288;SDS011;23174;49.462;11.000;2023-06-04T09:05:10;3.60;;;1.77;;
37288;SDS011;23174;49.462;11.000;2023-06-04T09:07:22;1.77;;;1.67;;
37288;SDS011;23174;49.462;11.000;2023-06-04T09:09:25;3.78;;;1.60;;
37288;SDS011;23174;49.462;11.000;2023-06-04T09:12:08;1.90;;;1.40;;
37288;SDS011;23174;49.462;11.000;2023-06-04T09:13:51;2.58;;;1.30;;
37288;SDS011;23174;49.462;11.000;2023-06-04T09:16:02;2.63;;;1.90;;
37288;SDS011;23174;49.462;11.000;2023-06-04T09:18:04;3.85;;;1.88;;
37288;SDS011;23174;49.462;11.000;2023-06-04T09:20:04;1.92;;;1.70;;
37288;SDS011;23174;49.462;11.000;2023-06-04T09:22:08;3.42;;;1.70;;
37288;SDS011;23174;49.462;11.000;2023-06-04T09:24:09;2.10;;;1.90;;
37288;SDS011;23174;49.462;11.000;2023-06-04T09:26:09;1.90;;;1.80;;
37288;SDS011;23174;49.462;11.000;2023-06-04T09:28:10;2.55;;;1.58;;
37288;SDS011;23174;49.462;11.000;2023-06-04T09:30:11;2.38;;;1.90;;
37288;SDS011;23174;49.462;11.000;2023-06-04T09:32:11;2.78;;;1.50;;
37288;SDS011;23174;49.462;11.000;2023-06-04T09:34:12;2.25;;;1.77;;
37288;SDS011;23174;49.462;11.000;2023-06-04T09:36:14;2.60;;;1.90;;
37288;SDS011;23174;49.462;11.000;2023-06-04T09:38:15;2.75;;;1.70;;
37288;SDS011;23174;49.462;11.000;2023-06-04T09:40:15;2.25;;;1.92;;
37288;SDS011;23174;49.462;11.000;2023-06-04T09:42:16;6.70;;;2.10;;
37288;SDS011;23174;49.462;11.000;2023-06-04T09:44:16;3.15;;;1.67;;
37288;SDS011;23174;49.462;11.000;2023-06-04T09:46:17;4.18;;;2.33;;
37288;SDS011;23174;49.462;11.000;2023-06-04T09:48:21;2.13;;;1.88;;
37288;SDS011;23174;49.462;11.000;2023-06-04T09:50:25;2.70;;;2.30;;
37288;SDS011;23174;49.462;11.000;2023-06-04T09:52:33;2.20;;;1.73;;
37288;SDS011;23174;49.462;11.000;2023-06-04T09:54:37;4.03;;;1.88;;
37288;SDS011;23174;49.462;11.000;2023-06-04T09:56:40;3.38;;;1.92;;
37288;SDS011;23174;49.462;11.000;2023-06-04T09:58:41;5.20;;;1.77;;
37288;SDS011;23174;49.462;11.000;2023-06-04T10:00:43;3.33;;;1.60;;
37288;SDS011;23174;49.462;11.000;2023-06-04T10:02:45;2.72;;;1.65;;
37288;SDS011;23174;49.462;11.000;2023-06-04T10:04:53;4.10;;;1.90;;
37288;SDS011;23174;49.462;11.000;2023-06-04T10:06:58;1.67;;;1.52;;
37288;SDS011;23174;49.462;11.000;2023-06-04T10:09:00;3.35;;;2.10;;
37288;SDS011;23174;49.462;11.000;2023-06-04T10:11:05;2.35;;;1.58;;
37288;SDS011;23174;49.462;11.000;2023-06-04T10:13:43;3.60;;;2.20;;
37288;SDS011;23174;49.462;11.000;2023-06-04T10:15:41;2.97;;;2.03;;
37288;SDS011;23174;49.462;11.000;2023-06-04T10:17:41;6.03;;;1.77;;
37288;SDS011;23174;49.462;11.000;2023-06-04T10:19:43;2.33;;;1.80;;
37288;SDS011;23174;49.462;11.000;2023-06-04T10:21:44;3.22;;;1.95;;
37288;SDS011;23174;49.462;11.000;2023-06-04T10:23:45;2.35;;;1.70;;
37288;SDS011;23174;49.462;11.000;2023-06-04T10:25:46;2.85;;;2.00;;
37288;SDS011;23174;49.462;11.000;2023-06-04T10:27:50;4.93;;;1.70;;
37288;SDS011;23174;49.462;11.000;2023-06-04T10:29:51;2.97;;;1.83;;
37288;SDS011;23174;49.462;11.000;2023-06-04T10:31:53;1.80;;;1.70;;
37288;SDS011;23174;49.462;11.000;2023-06-04T10:33:57;3.55;;;2.78;;
37288;SDS011;23174;49.462;11.000;2023-06-04T10:35:58;4.85;;;2.42;;
37288;SDS011;23174;49.462;11.000;2023-06-04T10:38:05;6.15;;;2.60;;
37288;SDS011;23174;49.462;11.000;2023-06-04T10:40:06;5.28;;;3.83;;
37288;SDS011;23174;49.462;11.000;2023-06-04T10:42:07;4.78;;;2.20;;
37288;SDS011;23174;49.462;11.000;2023-06-04T10:44:08;3.85;;;1.70;;
37288;SDS011;23174;49.462;11.000;2023-06-04T10:46:15;3.63;;;1.70;;
37288;SDS011;23174;49.462;11.000;2023-06-04T10:48:16;2.05;;;1.83;;
37288;SDS011;23174;49.462;11.000;2023-06-04T10:50:18;3.55;;;1.90;;
37288;SDS011;23174;49.462;11.000;2023-06-04T10:52:19;2.08;;;1.60;;
37288;SDS011;23174;49.462;11.000;2023-06-04T10:54:22;2.15;;;1.95;;
37288;SDS011;23174;49.462;11.000;2023-06-04T10:56:26;3.75;;;1.77;;
37288;SDS011;23174;49.462;11.000;2023-06-04T10:58:37;5.13;;;2.00;;
37288;SDS011;23174;49.462;11.000;2023-06-04T11:00:39;2.15;;;1.95;;
37288;SDS011;23174;49.462;11.000;2023-06-04T11:02:49;3.78;;;2.00;;
37288;SDS011;23174;49.462;11.000;2023-06-04T11:05:03;3.90;;;2.22;;
37288;SDS011;23174;49.462;11.000;2023-06-04T11:07:07;2.65;;;2.17;;
37288;SDS011;23174;49.462;11.000;2023-06-04T11:09:12;2.10;;;1.90;;
37288;SDS011;23174;49.462;11.000;2023-06-04T11:11:16;3.95;;;1.88;;
37288;SDS011;23174;49.462;11.000;2023-06-04T11:13:22;4.63;;;1.63;;
37288;SDS011;23174;49.462;11.000;2023-06-04T11:15:24;2.25;;;1.80;;
37288;SDS011;23174;49.462;11.000;2023-06-04T11:17:25;3.85;;;1.80;;
37288;SDS011;23174;49.462;11.000;2023-06-04T11:19:30;1.55;;;1.45;;
37288;SDS011;23174;49.462;11.000;2023-06-04T11:21:35;3.85;;;1.80;;
37288;SDS011;23174;49.462;11.000;2023-06-04T11:23:37;3.72;;;1.98;;
37288;SDS011;23174;49.462;11.000;2023-06-04T11:25:38;2.63;;;1.80;;
37288;SDS011;23174;49.462;11.000;2023-06-04T11:27:39;1.60;;;1.50;;
37288;SDS011;23174;49.462;11.000;2023-06-04T11:29:39;3.50;;;2.90;;
37288;SDS011;23174;49.462;11.000;2023-06-04T11:31:41;7.30;;;1.70;;
37288;SDS011;23174;49.462;11.000;2023-06-04T11:33:45;3.13;;;2.05;;
37288;SDS011;23174;49.462;11.000;2023-06-04T11:35:46;2.00;;;1.80;;
37288;SDS011;23174;49.462;11.000;2023-06-04T11:37:54;3.20;;;2.05;;
37288;SDS011;23174;49.462;11.000;2023-06-04T11:39:55;3.33;;;1.85;;
37288;SDS011;23174;49.462;11.000;2023-06-04T11:41:55;2.03;;;1.83;;
37288;SDS011;23174;49.462;11.000;2023-06-04T11:43:57;1.90;;;1.60;;
37288;SDS011;23174;49.462;11.000;2023-06-04T11:46:05;3.88;;;2.08;;
37288;SDS011;23174;49.462;11.000;2023-06-04T11:48:06;1.90;;;1.50;;
37288;SDS011;23174;49.462;11.000;2023-06-04T11:50:11;2.20;;;2.00;;
37288;SDS011;23174;49.462;11.000;2023-06-04T11:52:12;2.47;;;2.15;;
37288;SDS011;23174;49.462;11.000;2023-06-04T11:54:13;1.92;;;1.70;;
37288;SDS011;23174;49.462;11.000;2023-06-04T11:56:15;1.70;;;1.60;;
37288;SDS011;23174;49.462;11.000;2023-06-04T11:58:17;7.43;;;2.15;;
37288;SDS011;23174;49.462;11.000;2023-06-04T12:00:17;2.30;;;1.70;;
37288;SDS011;23174;49.462;11.000;2023-06-04T12:02:19;3.22;;;1.80;;
37288;SDS011;23174;49.462;11.000;2023-06-04T12:04:20;2.25;;;2.05;;
37288;SDS011;23174;49.462;11.000;2023-06-04T12:06:20;2.45;;;2.25;;